sensor_id;sensor_type;location;lat;lon;timestamp;P1;durP1;ratioP1;P2;durP2;ratioP2
52210;SDS011;38179;52.756;6.906;2023-12-20T00:01:35;12.43;;;7.53;;
52210;SDS011;38179;52.756;6.906;2023-12-20T00:04:01;19.15;;;8.02;;
52210;SDS011;38179;52.756;6.906;2023-12-20T00:06:28;12.00;;;7.38;;
52210;SDS011;38179;52.756;6.906;2023-12-20T00:08:54;12.90;;;7.38;;
52210;SDS011;38179;52.756;6.906;2023-12-20T00:11:20;19.50;;;7.90;;
52210;SDS011;38179;52.756;6.906;2023-12-20T00:13:45;10.70;;;7.53;;
52210;SDS011;38179;52.756;6.906;2023-12-20T00:16:11;14.57;;;7.70;;
52210;SDS011;38179;52.756;6.906;2023-12-20T00:18:37;14.00;;;7.55;;
52210;SDS011;38179;52.756;6.906;2023-12-20T00:21:03;13.00;;;7.93;;
52210;SDS011;38179;52.756;6.906;2023-12-20T00:23:29;18.60;;;8.20;;
52210;SDS011;38179;52.756;6.906;2023-12-20T00:25:55;16.02;;;8.07;;
52210;SDS011;38179;52.756;6.906;2023-12-20T00:28:21;16.15;;;7.90;;
52210;SDS011;38179;52.756;6.906;2023-12-20T00:30:47;14.35;;;7.70;;
52210;SDS011;38179;52.756;6.906;2023-12-20T00:33:13;13.75;;;8.10;;
52210;SDS011;38179;52.756;6.906;2023-12-20T00:35:39;13.18;;;7.60;;
52210;SDS011;38179;52.756;6.906;2023-12-20T00:38:05;17.13;;;7.93;;
52210;SDS011;38179;52.756;6.906;2023-12-20T00:40:32;20.30;;;8.02;;
52210;SDS011;38179;52.756;6.906;2023-12-20T00:42:58;15.00;;;7.68;;
52210;SDS011;38179;52.756;6.906;2023-12-20T00:45:24;15.80;;;8.07;;
52210;SDS011;38179;52.756;6.906;2023-12-20T00:47:50;19.23;;;7.90;;
52210;SDS011;38179;52.756;6.906;2023-12-20T00:50:16;12.00;;;7.68;;
52210;SDS011;38179;52.756;6.906;2023-12-20T00:52:42;15.05;;;7.90;;
52210;SDS011;38179;52.756;6.906;2023-12-20T00:55:08;16.20;;;7.75;;
52210;SDS011;38179;52.756;6.906;2023-12-20T00:57:34;19.02;;;7.60;;
52210;SDS011;38179;52.756;6.906;2023-12-20T01:00:00;15.23;;;7.65;;
52210;SDS011;38179;52.756;6.906;2023-12-20T01:02:26;13.35;;;7.80;;
52210;SDS011;38179;52.756;6.906;2023-12-20T01:04:52;14.18;;;7.40;;
52210;SDS011;38179;52.756;6.906;2023-12-20T01:07:17;17.23;;;7.97;;
52210;SDS011;38179;52.756;6.906;2023-12-20T01:09:44;17.73;;;7.88;;
52210;SDS011;38179;52.756;6.906;2023-12-20T01:12:09;10.98;;;7.50;;
52210;SDS011;38179;52.756;6.906;2023-12-20T01:14:35;15.82;;;7.82;;
52210;SDS011;38179;52.756;6.906;2023-12-20T01:17:01;12.30;;;7.30;;
52210;SDS011;38179;52.756;6.906;2023-12-20T01:19:27;12.88;;;8.18;;
52210;SDS011;38179;52.756;6.906;2023-12-20T01:21:54;19.88;;;8.45;;
52210;SDS011;38179;52.756;6.906;2023-12-20T01:24:20;14.68;;;7.90;;
52210;SDS011;38179;52.756;6.906;2023-12-20T01:26:46;20.88;;;8.02;;
52210;SDS011;38179;52.756;6.906;2023-12-20T01:29:12;13.25;;;7.90;;
52210;SDS011;38179;52.756;6.906;2023-12-20T01:31:39;19.98;;;7.85;;
52210;SDS011;38179;52.756;6.906;2023-12-20T01:34:08;16.75;;;7.75;;
52210;SDS011;38179;52.756;6.906;2023-12-20T01:36:34;11.15;;;7.50;;
52210;SDS011;38179;52.756;6.906;2023-12-20T01:39:00;17.85;;;8.25;;
52210;SDS011;38179;52.756;6.906;2023-12-20T01:41:26;15.88;;;8.27;;
52210;SDS011;38179;52.756;6.906;2023-12-20T01:43:51;19.13;;;8.13;;
52210;SDS011;38179;52.756;6.906;2023-12-20T01:46:18;14.52;;;7.53;;
52210;SDS011;38179;52.756;6.906;2023-12-20T01:48:47;16.75;;;8.10;;
52210;SDS011;38179;52.756;6.906;2023-12-20T01:51:13;25.35;;;8.38;;
52210;SDS011;38179;52.756;6.906;2023-12-20T01:53:39;30.13;;;10.05;;
52210;SDS011;38179;52.756;6.906;2023-12-20T01:56:07;18.48;;;8.15;;
52210;SDS011;38179;52.756;6.906;2023-12-20T01:58:33;24.25;;;7.82;;
52210;SDS011;38179;52.756;6.906;2023-12-20T02:01:01;14.38;;;7.72;;
52210;SDS011;38179;52.756;6.906;2023-12-20T02:03:27;16.77;;;8.02;;
52210;SDS011;38179;52.756;6.906;2023-12-20T02:05:53;19.10;;;7.82;;
52210;SDS011;38179;52.756;6.906;2023-12-20T02:08:20;18.75;;;8.32;;
52210;SDS011;38179;52.756;6.906;2023-12-20T02:10:46;14.15;;;8.25;;
52210;SDS011;38179;52.756;6.906;2023-12-20T02:13:12;15.77;;;8.30;;
52210;SDS011;38179;52.756;6.906;2023-12-20T02:15:38;16.45;;;7.80;;
52210;SDS011;38179;52.756;6.906;2023-12-20T02:18:05;14.77;;;7.93;;
52210;SDS011;38179;52.756;6.906;2023-12-20T02:20:31;18.35;;;7.85;;
52210;SDS011;38179;52.756;6.906;2023-12-20T02:22:57;20.90;;;8.48;;
52210;SDS011;38179;52.756;6.906;2023-12-20T02:25:23;19.88;;;9.32;;
52210;SDS011;38179;52.756;6.906;2023-12-20T02:27:49;16.02;;;8.75;;
52210;SDS011;38179;52.756;6.906;2023-12-20T02:30:15;25.65;;;8.57;;
52210;SDS011;38179;52.756;6.906;2023-12-20T02:32:41;20.50;;;8.70;;
52210;SDS011;38179;52.756;6.906;2023-12-20T02:35:07;18.30;;;7.93;;
52210;SDS011;38179;52.756;6.906;2023-12-20T02:37:33;16.05;;;8.25;;
52210;SDS011;38179;52.756;6.906;2023-12-20T02:39:59;19.92;;;8.13;;
52210;SDS011;38179;52.756;6.906;2023-12-20T02:42:25;17.45;;;8.43;;
52210;SDS011;38179;52.756;6.906;2023-12-20T02:44:51;20.55;;;8.18;;
52210;SDS011;38179;52.756;6.906;2023-12-20T02:47:17;19.88;;;8.65;;
52210;SDS011;38179;52.756;6.906;2023-12-20T02:49:42;20.80;;;8.10;;
52210;SDS011;38179;52.756;6.906;2023-12-20T02:52:08;18.75;;;8.23;;
52210;SDS011;38179;52.756;6.906;2023-12-20T02:54:34;15.38;;;8.05;;
52210;SDS011;38179;52.756;6.906;2023-12-20T02:57:00;22.58;;;8.43;;
52210;SDS011;38179;52.756;6.906;2023-12-20T02:59:26;16.83;;;9.02;;
52210;SDS011;38179;52.756;6.906;2023-12-20T03:01:52;17.17;;;8.18;;
52210;SDS011;38179;52.756;6.906;2023-12-20T03:04:18;22.20;;;8.65;;
52210;SDS011;38179;52.756;6.906;2023-12-20T03:06:43;21.73;;;8.65;;
52210;SDS011;38179;52.756;6.906;2023-12-20T03:09:09;17.83;;;8.18;;
52210;SDS011;38179;52.756;6.906;2023-12-20T03:11:35;19.27;;;8.38;;
52210;SDS011;38179;52.756;6.906;2023-12-20T03:14:01;14.10;;;8.05;;
52210;SDS011;38179;52.756;6.906;2023-12-20T03:16:27;17.30;;;8.48;;
52210;SDS011;38179;52.756;6.906;2023-12-20T03:18:53;18.63;;;7.85;;
52210;SDS011;38179;52.756;6.906;2023-12-20T03:21:19;12.75;;;7.22;;
52210;SDS011;38179;52.756;6.906;2023-12-20T03:23:45;25.10;;;8.73;;
52210;SDS011;38179;52.756;6.906;2023-12-20T03:26:10;22.52;;;8.73;;
52210;SDS011;38179;52.756;6.906;2023-12-20T03:28:36;16.42;;;7.93;;
52210;SDS011;38179;52.756;6.906;2023-12-20T03:31:02;11.95;;;7.68;;
52210;SDS011;38179;52.756;6.906;2023-12-20T03:33:28;21.95;;;8.15;;
52210;SDS011;38179;52.756;6.906;2023-12-20T03:35:54;17.25;;;8.13;;
52210;SDS011;38179;52.756;6.906;2023-12-20T03:38:20;19.02;;;8.80;;
52210;SDS011;38179;52.756;6.906;2023-12-20T03:40:49;23.53;;;8.73;;
52210;SDS011;38179;52.756;6.906;2023-12-20T03:43:15;16.85;;;8.50;;
52210;SDS011;38179;52.756;6.906;2023-12-20T03:45:41;23.13;;;8.80;;
52210;SDS011;38179;52.756;6.906;2023-12-20T03:48:07;24.92;;;8.52;;
52210;SDS011;38179;52.756;6.906;2023-12-20T03:50:34;17.80;;;9.02;;
52210;SDS011;38179;52.756;6.906;2023-12-20T03:53:00;19.95;;;9.20;;
52210;SDS011;38179;52.756;6.906;2023-12-20T03:55:26;22.88;;;8.63;;
52210;SDS011;38179;52.756;6.906;2023-12-20T03:57:52;22.17;;;9.20;;
52210;SDS011;38179;52.756;6.906;2023-12-20T04:00:18;19.30;;;8.80;;
52210;SDS011;38179;52.756;6.906;2023-12-20T04:02:43;26.85;;;9.63;;
52210;SDS011;38179;52.756;6.906;2023-12-20T04:05:10;20.60;;;9.60;;
52210;SDS011;38179;52.756;6.906;2023-12-20T04:07:37;24.83;;;10.10;;
52210;SDS011;38179;52.756;6.906;2023-12-20T04:10:03;20.42;;;9.20;;
52210;SDS011;38179;52.756;6.906;2023-12-20T04:12:30;21.83;;;9.10;;
52210;SDS011;38179;52.756;6.906;2023-12-20T04:14:56;30.08;;;9.25;;
52210;SDS011;38179;52.756;6.906;2023-12-20T04:17:22;21.80;;;9.18;;
52210;SDS011;38179;52.756;6.906;2023-12-20T04:19:49;27.20;;;9.95;;
52210;SDS011;38179;52.756;6.906;2023-12-20T04:22:15;19.40;;;9.98;;
52210;SDS011;38179;52.756;6.906;2023-12-20T04:24:42;19.92;;;9.48;;
52210;SDS011;38179;52.756;6.906;2023-12-20T04:27:08;20.88;;;8.77;;
52210;SDS011;38179;52.756;6.906;2023-12-20T04:29:34;23.05;;;9.38;;
52210;SDS011;38179;52.756;6.906;2023-12-20T04:32:00;30.92;;;9.93;;
52210;SDS011;38179;52.756;6.906;2023-12-20T04:34:26;24.00;;;9.70;;
52210;SDS011;38179;52.756;6.906;2023-12-20T04:36:52;27.55;;;9.63;;
52210;SDS011;38179;52.756;6.906;2023-12-20T04:39:18;19.23;;;8.93;;
52210;SDS011;38179;52.756;6.906;2023-12-20T04:41:44;24.25;;;9.93;;
52210;SDS011;38179;52.756;6.906;2023-12-20T04:44:10;23.50;;;9.45;;
52210;SDS011;38179;52.756;6.906;2023-12-20T04:46:36;22.58;;;9.25;;
52210;SDS011;38179;52.756;6.906;2023-12-20T04:49:02;30.30;;;9.70;;
52210;SDS011;38179;52.756;6.906;2023-12-20T04:51:27;29.25;;;9.73;;
52210;SDS011;38179;52.756;6.906;2023-12-20T04:53:53;26.90;;;9.68;;
52210;SDS011;38179;52.756;6.906;2023-12-20T04:56:19;31.33;;;10.00;;
52210;SDS011;38179;52.756;6.906;2023-12-20T04:58:45;22.60;;;10.13;;
52210;SDS011;38179;52.756;6.906;2023-12-20T05:01:12;25.40;;;9.63;;
52210;SDS011;38179;52.756;6.906;2023-12-20T05:03:40;26.30;;;9.35;;
52210;SDS011;38179;52.756;6.906;2023-12-20T05:06:05;27.02;;;9.30;;
52210;SDS011;38179;52.756;6.906;2023-12-20T05:08:31;22.83;;;10.25;;
52210;SDS011;38179;52.756;6.906;2023-12-20T05:10:57;22.65;;;9.75;;
52210;SDS011;38179;52.756;6.906;2023-12-20T05:13:23;22.75;;;9.82;;
52210;SDS011;38179;52.756;6.906;2023-12-20T05:15:49;28.35;;;10.82;;
52210;SDS011;38179;52.756;6.906;2023-12-20T05:18:16;25.90;;;10.48;;
52210;SDS011;38179;52.756;6.906;2023-12-20T05:20:41;22.15;;;9.80;;
52210;SDS011;38179;52.756;6.906;2023-12-20T05:23:07;24.83;;;10.02;;
52210;SDS011;38179;52.756;6.906;2023-12-20T05:25:33;23.40;;;9.80;;
52210;SDS011;38179;52.756;6.906;2023-12-20T05:27:59;21.92;;;10.25;;
52210;SDS011;38179;52.756;6.906;2023-12-20T05:30:25;27.77;;;10.65;;
52210;SDS011;38179;52.756;6.906;2023-12-20T05:32:51;30.88;;;9.50;;
52210;SDS011;38179;52.756;6.906;2023-12-20T05:35:17;32.17;;;9.90;;
52210;SDS011;38179;52.756;6.906;2023-12-20T05:37:44;20.58;;;10.07;;
52210;SDS011;38179;52.756;6.906;2023-12-20T05:40:10;31.23;;;10.40;;
52210;SDS011;38179;52.756;6.906;2023-12-20T05:42:36;30.10;;;10.25;;
52210;SDS011;38179;52.756;6.906;2023-12-20T05:45:05;26.50;;;10.23;;
52210;SDS011;38179;52.756;6.906;2023-12-20T05:47:31;22.25;;;9.25;;
52210;SDS011;38179;52.756;6.906;2023-12-20T05:49:57;33.55;;;9.50;;
52210;SDS011;38179;52.756;6.906;2023-12-20T05:52:23;21.02;;;10.10;;
52210;SDS011;38179;52.756;6.906;2023-12-20T05:54:49;24.35;;;9.73;;
52210;SDS011;38179;52.756;6.906;2023-12-20T05:57:15;28.98;;;10.18;;
52210;SDS011;38179;52.756;6.906;2023-12-20T05:59:41;24.52;;;9.82;;
52210;SDS011;38179;52.756;6.906;2023-12-20T06:02:07;31.25;;;10.15;;
52210;SDS011;38179;52.756;6.906;2023-12-20T06:04:33;25.00;;;9.68;;
52210;SDS011;38179;52.756;6.906;2023-12-20T06:06:58;27.15;;;9.93;;
52210;SDS011;38179;52.756;6.906;2023-12-20T06:09:25;22.10;;;9.77;;
52210;SDS011;38179;52.756;6.906;2023-12-20T06:11:52;27.60;;;9.88;;
52210;SDS011;38179;52.756;6.906;2023-12-20T06:14:18;24.00;;;10.25;;
52210;SDS011;38179;52.756;6.906;2023-12-20T06:16:45;22.63;;;9.82;;
52210;SDS011;38179;52.756;6.906;2023-12-20T06:19:11;32.35;;;10.43;;
52210;SDS011;38179;52.756;6.906;2023-12-20T06:21:36;22.90;;;9.45;;
52210;SDS011;38179;52.756;6.906;2023-12-20T06:24:02;26.92;;;10.05;;
52210;SDS011;38179;52.756;6.906;2023-12-20T06:26:28;26.50;;;10.02;;
52210;SDS011;38179;52.756;6.906;2023-12-20T06:28:54;29.80;;;10.35;;
52210;SDS011;38179;52.756;6.906;2023-12-20T06:31:20;22.40;;;9.90;;
52210;SDS011;38179;52.756;6.906;2023-12-20T06:33:46;25.13;;;10.02;;
52210;SDS011;38179;52.756;6.906;2023-12-20T06:36:14;24.38;;;10.00;;
52210;SDS011;38179;52.756;6.906;2023-12-20T06:38:40;19.85;;;9.20;;
52210;SDS011;38179;52.756;6.906;2023-12-20T06:41:07;24.52;;;10.75;;
52210;SDS011;38179;52.756;6.906;2023-12-20T06:43:33;28.42;;;10.20;;
52210;SDS011;38179;52.756;6.906;2023-12-20T06:46:02;21.52;;;9.68;;
52210;SDS011;38179;52.756;6.906;2023-12-20T06:48:28;25.98;;;9.35;;
52210;SDS011;38179;52.756;6.906;2023-12-20T06:50:54;27.13;;;10.82;;
52210;SDS011;38179;52.756;6.906;2023-12-20T06:53:19;28.42;;;9.82;;
52210;SDS011;38179;52.756;6.906;2023-12-20T06:55:47;28.48;;;9.23;;
52210;SDS011;38179;52.756;6.906;2023-12-20T06:58:13;20.50;;;9.60;;
52210;SDS011;38179;52.756;6.906;2023-12-20T07:00:40;23.77;;;9.82;;
52210;SDS011;38179;52.756;6.906;2023-12-20T07:03:06;22.30;;;9.52;;
52210;SDS011;38179;52.756;6.906;2023-12-20T07:05:32;22.95;;;9.98;;
52210;SDS011;38179;52.756;6.906;2023-12-20T07:07:58;24.38;;;9.45;;
52210;SDS011;38179;52.756;6.906;2023-12-20T07:10:24;23.98;;;9.63;;
52210;SDS011;38179;52.756;6.906;2023-12-20T07:12:53;19.52;;;9.20;;
52210;SDS011;38179;52.756;6.906;2023-12-20T07:15:20;21.90;;;9.90;;
52210;SDS011;38179;52.756;6.906;2023-12-20T07:17:47;32.55;;;10.07;;
52210;SDS011;38179;52.756;6.906;2023-12-20T07:20:13;30.40;;;9.88;;
52210;SDS011;38179;52.756;6.906;2023-12-20T07:22:38;20.98;;;9.60;;
52210;SDS011;38179;52.756;6.906;2023-12-20T07:25:04;19.92;;;9.38;;
52210;SDS011;38179;52.756;6.906;2023-12-20T07:27:31;24.00;;;10.10;;
52210;SDS011;38179;52.756;6.906;2023-12-20T07:29:56;24.48;;;9.65;;
52210;SDS011;38179;52.756;6.906;2023-12-20T07:32:22;29.60;;;10.88;;
52210;SDS011;38179;52.756;6.906;2023-12-20T07:34:49;19.02;;;9.55;;
52210;SDS011;38179;52.756;6.906;2023-12-20T07:37:15;20.75;;;9.68;;
52210;SDS011;38179;52.756;6.906;2023-12-20T07:39:41;25.33;;;9.93;;
52210;SDS011;38179;52.756;6.906;2023-12-20T07:42:07;26.55;;;10.15;;
52210;SDS011;38179;52.756;6.906;2023-12-20T07:44:34;20.15;;;9.40;;
52210;SDS011;38179;52.756;6.906;2023-12-20T07:49:52;26.58;;;9.07;;
52210;SDS011;38179;52.756;6.906;2023-12-20T07:52:18;29.25;;;10.95;;
52210;SDS011;38179;52.756;6.906;2023-12-20T07:54:44;19.52;;;9.43;;
52210;SDS011;38179;52.756;6.906;2023-12-20T07:57:11;22.50;;;9.95;;
52210;SDS011;38179;52.756;6.906;2023-12-20T07:59:37;28.48;;;9.70;;
52210;SDS011;38179;52.756;6.906;2023-12-20T08:02:03;23.88;;;9.70;;
52210;SDS011;38179;52.756;6.906;2023-12-20T08:04:29;24.65;;;9.43;;
52210;SDS011;38179;52.756;6.906;2023-12-20T08:06:55;27.27;;;10.77;;
52210;SDS011;38179;52.756;6.906;2023-12-20T08:09:21;24.70;;;9.68;;
52210;SDS011;38179;52.756;6.906;2023-12-20T08:11:47;27.73;;;10.32;;
52210;SDS011;38179;52.756;6.906;2023-12-20T08:14:13;19.63;;;9.75;;
52210;SDS011;38179;52.756;6.906;2023-12-20T08:16:39;23.50;;;10.40;;
52210;SDS011;38179;52.756;6.906;2023-12-20T08:19:05;25.77;;;9.77;;
52210;SDS011;38179;52.756;6.906;2023-12-20T08:21:31;29.20;;;10.25;;
52210;SDS011;38179;52.756;6.906;2023-12-20T08:23:57;24.60;;;9.80;;
52210;SDS011;38179;52.756;6.906;2023-12-20T08:26:23;22.92;;;10.10;;
52210;SDS011;38179;52.756;6.906;2023-12-20T08:28:49;23.90;;;10.73;;
52210;SDS011;38179;52.756;6.906;2023-12-20T08:31:16;27.17;;;9.68;;
52210;SDS011;38179;52.756;6.906;2023-12-20T08:33:46;25.45;;;9.95;;
52210;SDS011;38179;52.756;6.906;2023-12-20T08:36:13;24.08;;;9.85;;
52210;SDS011;38179;52.756;6.906;2023-12-20T08:38:40;22.20;;;10.38;;
52210;SDS011;38179;52.756;6.906;2023-12-20T08:41:06;24.40;;;9.68;;
52210;SDS011;38179;52.756;6.906;2023-12-20T08:43:32;27.33;;;10.10;;
52210;SDS011;38179;52.756;6.906;2023-12-20T08:45:59;21.52;;;10.15;;
52210;SDS011;38179;52.756;6.906;2023-12-20T08:48:25;21.23;;;9.70;;
52210;SDS011;38179;52.756;6.906;2023-12-20T08:50:51;23.17;;;10.00;;
52210;SDS011;38179;52.756;6.906;2023-12-20T08:53:18;29.55;;;10.93;;
52210;SDS011;38179;52.756;6.906;2023-12-20T08:55:44;27.00;;;10.48;;
52210;SDS011;38179;52.756;6.906;2023-12-20T08:58:11;21.90;;;10.77;;
52210;SDS011;38179;52.756;6.906;2023-12-20T09:00:37;30.42;;;10.35;;
52210;SDS011;38179;52.756;6.906;2023-12-20T09:03:04;23.73;;;10.27;;
52210;SDS011;38179;52.756;6.906;2023-12-20T09:05:30;28.92;;;10.48;;
52210;SDS011;38179;52.756;6.906;2023-12-20T09:07:56;19.77;;;10.02;;
52210;SDS011;38179;52.756;6.906;2023-12-20T09:10:22;22.25;;;10.85;;
52210;SDS011;38179;52.756;6.906;2023-12-20T09:12:49;25.17;;;10.07;;
52210;SDS011;38179;52.756;6.906;2023-12-20T09:15:16;29.27;;;11.35;;
52210;SDS011;38179;52.756;6.906;2023-12-20T09:17:43;24.30;;;9.75;;
52210;SDS011;38179;52.756;6.906;2023-12-20T09:20:09;31.33;;;10.38;;
52210;SDS011;38179;52.756;6.906;2023-12-20T09:22:35;24.10;;;10.40;;
52210;SDS011;38179;52.756;6.906;2023-12-20T09:25:03;26.40;;;10.75;;
52210;SDS011;38179;52.756;6.906;2023-12-20T09:27:30;24.77;;;9.23;;
52210;SDS011;38179;52.756;6.906;2023-12-20T09:29:55;29.27;;;10.82;;
52210;SDS011;38179;52.756;6.906;2023-12-20T09:32:21;31.13;;;11.38;;
52210;SDS011;38179;52.756;6.906;2023-12-20T09:34:47;17.30;;;9.68;;
52210;SDS011;38179;52.756;6.906;2023-12-20T09:37:13;23.42;;;10.40;;
52210;SDS011;38179;52.756;6.906;2023-12-20T09:39:39;25.65;;;10.27;;
52210;SDS011;38179;52.756;6.906;2023-12-20T09:42:06;24.40;;;9.45;;
52210;SDS011;38179;52.756;6.906;2023-12-20T09:44:32;32.00;;;10.32;;
52210;SDS011;38179;52.756;6.906;2023-12-20T09:47:02;28.92;;;9.82;;
52210;SDS011;38179;52.756;6.906;2023-12-20T09:49:30;20.85;;;9.48;;
52210;SDS011;38179;52.756;6.906;2023-12-20T09:51:57;28.27;;;11.20;;
52210;SDS011;38179;52.756;6.906;2023-12-20T09:54:25;22.90;;;10.18;;
52210;SDS011;38179;52.756;6.906;2023-12-20T09:56:53;28.60;;;10.85;;
52210;SDS011;38179;52.756;6.906;2023-12-20T09:59:19;25.13;;;10.50;;
52210;SDS011;38179;52.756;6.906;2023-12-20T10:01:47;20.90;;;10.20;;
52210;SDS011;38179;52.756;6.906;2023-12-20T10:04:15;19.58;;;9.80;;
52210;SDS011;38179;52.756;6.906;2023-12-20T10:06:41;16.13;;;8.45;;
52210;SDS011;38179;52.756;6.906;2023-12-20T10:09:11;14.70;;;8.50;;
52210;SDS011;38179;52.756;6.906;2023-12-20T10:11:37;15.85;;;8.25;;
52210;SDS011;38179;52.756;6.906;2023-12-20T10:14:04;12.82;;;8.23;;
52210;SDS011;38179;52.756;6.906;2023-12-20T10:16:31;14.00;;;8.43;;
52210;SDS011;38179;52.756;6.906;2023-12-20T10:18:58;11.98;;;7.50;;
52210;SDS011;38179;52.756;6.906;2023-12-20T10:21:25;11.95;;;7.63;;
52210;SDS011;38179;52.756;6.906;2023-12-20T10:23:52;13.25;;;7.90;;
52210;SDS011;38179;52.756;6.906;2023-12-20T10:26:25;11.25;;;7.32;;
52210;SDS011;38179;52.756;6.906;2023-12-20T10:28:55;11.40;;;7.28;;
52210;SDS011;38179;52.756;6.906;2023-12-20T10:34:00;10.57;;;7.70;;
52210;SDS011;38179;52.756;6.906;2023-12-20T10:36:27;12.27;;;7.07;;
52210;SDS011;38179;52.756;6.906;2023-12-20T10:38:54;10.60;;;7.03;;
52210;SDS011;38179;52.756;6.906;2023-12-20T10:41:27;11.70;;;7.38;;
52210;SDS011;38179;52.756;6.906;2023-12-20T10:44:04;11.80;;;7.32;;
52210;SDS011;38179;52.756;6.906;2023-12-20T10:46:33;11.43;;;7.40;;
52210;SDS011;38179;52.756;6.906;2023-12-20T10:48:59;17.40;;;8.23;;
52210;SDS011;38179;52.756;6.906;2023-12-20T10:51:28;13.80;;;7.20;;
52210;SDS011;38179;52.756;6.906;2023-12-20T10:53:56;8.68;;;6.85;;
52210;SDS011;38179;52.756;6.906;2023-12-20T10:56:24;12.80;;;7.00;;
52210;SDS011;38179;52.756;6.906;2023-12-20T10:58:52;9.05;;;7.05;;
52210;SDS011;38179;52.756;6.906;2023-12-20T11:01:18;14.18;;;8.32;;
52210;SDS011;38179;52.756;6.906;2023-12-20T11:03:51;11.98;;;8.05;;
52210;SDS011;38179;52.756;6.906;2023-12-20T11:08:50;11.90;;;7.20;;
52210;SDS011;38179;52.756;6.906;2023-12-20T11:11:26;11.80;;;7.80;;
52210;SDS011;38179;52.756;6.906;2023-12-20T11:14:04;11.70;;;8.13;;
52210;SDS011;38179;52.756;6.906;2023-12-20T11:16:40;12.52;;;7.28;;
52210;SDS011;38179;52.756;6.906;2023-12-20T11:19:07;13.85;;;7.50;;
52210;SDS011;38179;52.756;6.906;2023-12-20T11:21:33;14.65;;;7.25;;
52210;SDS011;38179;52.756;6.906;2023-12-20T11:23:59;10.77;;;7.38;;
52210;SDS011;38179;52.756;6.906;2023-12-20T11:26:28;11.55;;;7.32;;
52210;SDS011;38179;52.756;6.906;2023-12-20T11:32:00;13.15;;;7.75;;
52210;SDS011;38179;52.756;6.906;2023-12-20T11:34:28;16.70;;;7.60;;
52210;SDS011;38179;52.756;6.906;2023-12-20T11:37:00;12.00;;;7.63;;
52210;SDS011;38179;52.756;6.906;2023-12-20T11:39:28;14.40;;;7.60;;
52210;SDS011;38179;52.756;6.906;2023-12-20T11:41:56;14.65;;;7.90;;
52210;SDS011;38179;52.756;6.906;2023-12-20T11:46:51;9.07;;;7.03;;
52210;SDS011;38179;52.756;6.906;2023-12-20T11:49:25;12.02;;;7.30;;
52210;SDS011;38179;52.756;6.906;2023-12-20T11:51:51;10.02;;;7.07;;
52210;SDS011;38179;52.756;6.906;2023-12-20T11:54:17;14.75;;;8.20;;
52210;SDS011;38179;52.756;6.906;2023-12-20T11:56:43;12.52;;;7.05;;
52210;SDS011;38179;52.756;6.906;2023-12-20T11:59:09;10.93;;;7.07;;
52210;SDS011;38179;52.756;6.906;2023-12-20T12:01:36;12.60;;;7.45;;
52210;SDS011;38179;52.756;6.906;2023-12-20T12:04:05;12.40;;;7.78;;
52210;SDS011;38179;52.756;6.906;2023-12-20T12:06:32;14.32;;;7.72;;
52210;SDS011;38179;52.756;6.906;2023-12-20T12:08:58;12.02;;;7.85;;
52210;SDS011;38179;52.756;6.906;2023-12-20T12:11:24;13.27;;;7.93;;
52210;SDS011;38179;52.756;6.906;2023-12-20T12:13:50;14.70;;;7.93;;
52210;SDS011;38179;52.756;6.906;2023-12-20T12:16:17;14.48;;;8.05;;
52210;SDS011;38179;52.756;6.906;2023-12-20T12:18:54;15.73;;;7.97;;
52210;SDS011;38179;52.756;6.906;2023-12-20T12:21:21;20.70;;;8.27;;
52210;SDS011;38179;52.756;6.906;2023-12-20T12:23:46;13.55;;;7.63;;
52210;SDS011;38179;52.756;6.906;2023-12-20T12:26:12;11.35;;;7.25;;
52210;SDS011;38179;52.756;6.906;2023-12-20T12:28:41;18.08;;;8.45;;
52210;SDS011;38179;52.756;6.906;2023-12-20T12:33:42;14.38;;;7.60;;
52210;SDS011;38179;52.756;6.906;2023-12-20T12:36:09;15.25;;;7.45;;
52210;SDS011;38179;52.756;6.906;2023-12-20T12:38:36;14.43;;;7.45;;
52210;SDS011;38179;52.756;6.906;2023-12-20T12:41:03;12.73;;;7.38;;
52210;SDS011;38179;52.756;6.906;2023-12-20T12:43:30;13.10;;;7.63;;
52210;SDS011;38179;52.756;6.906;2023-12-20T12:45:56;12.05;;;8.15;;
52210;SDS011;38179;52.756;6.906;2023-12-20T12:48:22;13.95;;;8.20;;
52210;SDS011;38179;52.756;6.906;2023-12-20T12:50:48;14.18;;;8.27;;
52210;SDS011;38179;52.756;6.906;2023-12-20T12:53:16;16.48;;;7.90;;
52210;SDS011;38179;52.756;6.906;2023-12-20T12:55:42;17.70;;;8.10;;
52210;SDS011;38179;52.756;6.906;2023-12-20T12:58:08;13.52;;;8.20;;
52210;SDS011;38179;52.756;6.906;2023-12-20T13:00:34;14.48;;;8.13;;
52210;SDS011;38179;52.756;6.906;2023-12-20T13:02:59;13.90;;;8.18;;
52210;SDS011;38179;52.756;6.906;2023-12-20T13:05:26;16.10;;;7.63;;
52210;SDS011;38179;52.756;6.906;2023-12-20T13:07:52;14.38;;;7.60;;
52210;SDS011;38179;52.756;6.906;2023-12-20T13:10:18;12.60;;;7.88;;
52210;SDS011;38179;52.756;6.906;2023-12-20T13:12:44;10.13;;;7.53;;
52210;SDS011;38179;52.756;6.906;2023-12-20T13:15:10;9.88;;;7.35;;
52210;SDS011;38179;52.756;6.906;2023-12-20T13:17:36;13.85;;;7.45;;
52210;SDS011;38179;52.756;6.906;2023-12-20T13:20:03;11.82;;;7.53;;
52210;SDS011;38179;52.756;6.906;2023-12-20T13:22:29;12.50;;;7.53;;
52210;SDS011;38179;52.756;6.906;2023-12-20T13:24:57;12.07;;;7.40;;
52210;SDS011;38179;52.756;6.906;2023-12-20T13:27:22;11.15;;;7.72;;
52210;SDS011;38179;52.756;6.906;2023-12-20T13:29:49;13.18;;;7.68;;
52210;SDS011;38179;52.756;6.906;2023-12-20T13:32:14;11.60;;;7.55;;
52210;SDS011;38179;52.756;6.906;2023-12-20T13:34:41;15.32;;;7.68;;
52210;SDS011;38179;52.756;6.906;2023-12-20T13:37:06;14.63;;;7.75;;
52210;SDS011;38179;52.756;6.906;2023-12-20T13:39:32;13.93;;;7.45;;
52210;SDS011;38179;52.756;6.906;2023-12-20T13:41:58;11.90;;;7.22;;
52210;SDS011;38179;52.756;6.906;2023-12-20T13:44:25;12.52;;;7.15;;
52210;SDS011;38179;52.756;6.906;2023-12-20T13:46:50;15.02;;;7.18;;
52210;SDS011;38179;52.756;6.906;2023-12-20T13:49:16;12.63;;;7.75;;
52210;SDS011;38179;52.756;6.906;2023-12-20T13:51:42;13.02;;;7.05;;
52210;SDS011;38179;52.756;6.906;2023-12-20T13:54:08;12.15;;;7.82;;
52210;SDS011;38179;52.756;6.906;2023-12-20T13:56:36;12.10;;;6.95;;
52210;SDS011;38179;52.756;6.906;2023-12-20T13:59:01;12.20;;;6.85;;
52210;SDS011;38179;52.756;6.906;2023-12-20T14:01:27;14.45;;;7.55;;
52210;SDS011;38179;52.756;6.906;2023-12-20T14:03:53;10.13;;;7.07;;
52210;SDS011;38179;52.756;6.906;2023-12-20T14:06:19;12.02;;;7.40;;
52210;SDS011;38179;52.756;6.906;2023-12-20T14:08:45;10.60;;;7.07;;
52210;SDS011;38179;52.756;6.906;2023-12-20T14:11:11;17.23;;;7.65;;
52210;SDS011;38179;52.756;6.906;2023-12-20T14:13:38;15.45;;;7.32;;
52210;SDS011;38179;52.756;6.906;2023-12-20T14:16:06;13.80;;;7.40;;
52210;SDS011;38179;52.756;6.906;2023-12-20T14:18:32;13.73;;;7.53;;
52210;SDS011;38179;52.756;6.906;2023-12-20T14:20:57;15.35;;;7.50;;
52210;SDS011;38179;52.756;6.906;2023-12-20T14:23:23;12.57;;;7.38;;
52210;SDS011;38179;52.756;6.906;2023-12-20T14:25:49;10.57;;;6.97;;
52210;SDS011;38179;52.756;6.906;2023-12-20T14:28:15;11.68;;;7.22;;
52210;SDS011;38179;52.756;6.906;2023-12-20T14:30:41;15.18;;;7.50;;
52210;SDS011;38179;52.756;6.906;2023-12-20T14:33:16;14.43;;;9.10;;
52210;SDS011;38179;52.756;6.906;2023-12-20T14:35:45;15.65;;;7.88;;
52210;SDS011;38179;52.756;6.906;2023-12-20T14:38:10;15.38;;;7.22;;
52210;SDS011;38179;52.756;6.906;2023-12-20T14:40:40;12.63;;;7.82;;
52210;SDS011;38179;52.756;6.906;2023-12-20T14:43:06;11.55;;;7.63;;
52210;SDS011;38179;52.756;6.906;2023-12-20T14:45:32;14.73;;;7.65;;